createdAt,value
2022-09-12T00:00:40.852Z,100750.9765625
2022-09-12T00:01:40.935Z,100751.69921875
2022-09-12T00:02:41.197Z,100750.5703125
2022-09-12T00:03:40.945Z,100747.90234375
2022-09-12T00:04:40.777Z,100748
2022-09-12T00:05:41.194Z,100746.08203125
2022-09-12T00:06:40.917Z,100751.1328125
2022-09-12T00:07:41.198Z,100748.171875
2022-09-12T00:08:40.840Z,100746.421875
2022-09-12T00:09:43.899Z,100748.81640625
2022-09-12T00:10:40.950Z,100745.640625
2022-09-12T00:11:40.925Z,100744.51953125
2022-09-12T00:12:41.194Z,100749.40625
2022-09-12T00:13:41.725Z,100751.81640625
2022-09-12T00:14:40.847Z,100749.8359375
2022-09-12T00:15:40.863Z,100749.046875
2022-09-12T00:16:40.976Z,100747.9921875
2022-09-12T00:17:41.196Z,100750.6171875
2022-09-12T00:18:40.974Z,100749.3203125
2022-09-12T00:19:40.847Z,100746.453125
2022-09-12T00:20:46.828Z,100748
2022-09-12T00:21:40.835Z,100743.80859375
2022-09-12T00:22:41.191Z,100742.61328125
2022-09-12T00:23:40.946Z,100743.3203125
2022-09-12T00:24:40.921Z,100742.24609375
2022-09-12T00:25:40.858Z,100742.12109375
2022-09-12T00:26:40.907Z,100741.12890625
2022-09-12T00:27:41.321Z,100740.453125
2022-09-12T00:28:40.940Z,100746.74609375
2022-09-12T00:29:40.856Z,100745.72265625
2022-09-12T00:30:40.957Z,100746.828125
2022-09-12T00:31:43.857Z,100743.40625
2022-09-12T00:32:41.125Z,100742.1640625
2022-09-12T00:33:40.941Z,100738.6171875
2022-09-12T00:34:40.891Z,100741.12890625
2022-09-12T00:35:41.164Z,100739.0703125
2022-09-12T00:36:40.930Z,100737.38671875
2022-09-12T00:37:41.172Z,100740.0859375
2022-09-12T00:38:40.860Z,100739.54296875
2022-09-12T00:39:40.927Z,100745.21484375
2022-09-12T00:40:40.775Z,100738.9375
2022-09-12T00:41:40.856Z,100743.5625
2022-09-12T00:42:46.868Z,100743.95703125
2022-09-12T00:43:40.869Z,100741.89453125
2022-09-12T00:44:40.892Z,100740.3359375
2022-09-12T00:45:41.013Z,100739.18359375
2022-09-12T00:46:40.934Z,100738.88671875
2022-09-12T00:47:41.268Z,100736.00390625
2022-09-12T00:48:40.894Z,100733.49609375
2022-09-12T00:49:40.753Z,100733.93359375
2022-09-12T00:50:41.195Z,100727.60546875
2022-09-12T00:51:40.973Z,100728.23046875
2022-09-12T00:52:41.121Z,100729.06640625
2022-09-12T00:53:43.912Z,100731.34765625
2022-09-12T00:54:40.839Z,100727.76953125
2022-09-12T00:55:40.900Z,100724.3203125
2022-09-12T00:56:40.980Z,100722.8515625
2022-09-12T00:57:41.140Z,100720.96875
2022-09-12T00:58:40.991Z,100725.359375
2022-09-12T00:59:40.852Z,100719.3359375
2022-09-12T01:00:40.918Z,100719.7578125
2022-09-12T01:01:40.925Z,100716.02734375
2022-09-12T01:02:41.195Z,100721.6640625
2022-09-12T01:03:40.837Z,100717.64453125
2022-09-12T01:04:43.893Z,100719.78515625
2022-09-12T01:05:41.116Z,100718.3046875
2022-09-12T01:06:40.938Z,100717.20703125
2022-09-12T01:07:41.118Z,100717.17578125
2022-09-12T01:08:40.876Z,100715.046875
2022-09-12T01:09:40.833Z,100718.609375
2022-09-12T01:10:40.868Z,100717.234375
2022-09-12T01:11:40.868Z,100718.0078125
2022-09-12T01:12:41.123Z,100719.30859375
2022-09-12T01:13:40.896Z,100718.15234375
2022-09-12T01:14:40.881Z,100718.31640625
2022-09-12T01:15:43.895Z,100718.6328125
2022-09-12T01:16:40.974Z,100717.15234375
2022-09-12T01:17:41.261Z,100718.58984375
2022-09-12T01:18:40.825Z,100716.01171875
2022-09-12T01:19:40.827Z,100717.8359375
2022-09-12T01:20:41.195Z,100714.12890625
2022-09-12T01:21:40.838Z,100714.68359375
2022-09-12T01:22:41.193Z,100717.2265625
2022-09-12T01:23:40.929Z,100713.70703125
2022-09-12T01:24:40.983Z,100713.33203125
2022-09-12T01:25:40.944Z,100710.6640625
2022-09-12T01:26:43.776Z,100717.12109375
2022-09-12T01:27:41.170Z,100716.16796875
2022-09-12T01:28:40.871Z,100712.86328125
2022-09-12T01:29:40.859Z,100715.625
2022-09-12T01:30:40.875Z,100711.109375
2022-09-12T01:31:40.961Z,100710.6015625
2022-09-12T01:32:41.130Z,100710.0078125
2022-09-12T01:33:40.816Z,100709.16796875
2022-09-12T01:34:40.776Z,100707.00390625
2022-09-12T01:35:41.191Z,100708.578125
2022-09-12T01:36:40.930Z,100707.15625
2022-09-12T01:37:46.865Z,100708.39453125
2022-09-12T01:38:41.007Z,100706.67578125
2022-09-12T01:39:40.895Z,100705.78125
2022-09-12T01:40:40.860Z,100707.73046875
2022-09-12T01:41:40.947Z,100707.84765625
2022-09-12T01:42:41.129Z,100706.67578125
2022-09-12T01:43:40.754Z,100703.4140625
2022-09-12T01:44:40.905Z,100704.44921875
2022-09-12T01:45:40.995Z,100705.3828125
2022-09-12T01:46:40.753Z,100705.74609375
2022-09-12T01:47:41.194Z,100705.640625
2022-09-12T01:48:43.807Z,100702.7578125
2022-09-12T01:49:40.892Z,100705.5546875
2022-09-12T01:50:41.188Z,100704.671875
2022-09-12T01:51:40.930Z,100705.71484375
2022-09-12T01:52:41.194Z,100700.15625
2022-09-12T01:53:40.957Z,100703.90625
2022-09-12T01:54:40.891Z,100706.36328125
2022-09-12T01:55:40.770Z,100703.7890625
2022-09-12T01:56:40.846Z,100705.4921875
2022-09-12T01:57:41.203Z,100702.375
2022-09-12T01:58:41.095Z,100705.3359375
2022-09-12T01:59:43.793Z,100701.8359375
2022-09-12T02:00:40.838Z,100699.66796875
2022-09-12T02:01:40.849Z,100696.8125
2022-09-12T02:02:41.206Z,100693.9453125
2022-09-12T02:03:40.979Z,100695.22265625
2022-09-12T02:04:40.854Z,100692.70703125
2022-09-12T02:05:41.126Z,100693.3515625
2022-09-12T02:06:40.878Z,100689.82421875
2022-09-12T02:07:41.120Z,100689.1953125
2022-09-12T02:08:41.179Z,100691.7109375
2022-09-12T02:09:40.892Z,100690.69921875
2022-09-12T02:10:43.813Z,100689.671875
2022-09-12T02:11:40.849Z,100688.39453125
2022-09-12T02:12:41.197Z,100689.265625
2022-09-12T02:13:40.979Z,100691.72265625
2022-09-12T02:14:40.963Z,100691.91796875
2022-09-12T02:15:40.928Z,100688.5859375
2022-09-12T02:16:40.831Z,100689.27734375
2022-09-12T02:17:41.196Z,100686.3828125
2022-09-12T02:18:40.881Z,100685.3828125
2022-09-12T02:19:40.770Z,100689.6640625
2022-09-12T02:20:48.393Z,100687.921875
2022-09-12T02:21:43.783Z,100685.453125
2022-09-12T02:22:41.113Z,100689.68359375
2022-09-12T02:23:40.932Z,100686.81640625
2022-09-12T02:24:40.758Z,100691.48046875
2022-09-12T02:25:40.868Z,100685.99609375
2022-09-12T02:26:40.874Z,100689.07421875
2022-09-12T02:27:41.134Z,100692.5859375
2022-09-12T02:28:40.770Z,100689.16015625
2022-09-12T02:29:40.902Z,100687.9140625
2022-09-12T02:30:41.006Z,100689.27734375
2022-09-12T02:31:40.885Z,100687.41015625
2022-09-12T02:32:46.876Z,100688.48046875
2022-09-12T02:33:40.954Z,100691.5859375
2022-09-12T02:34:40.865Z,100691.9609375
2022-09-12T02:35:41.350Z,100689.21484375
2022-09-12T02:36:40.946Z,100690.59375
2022-09-12T02:37:41.190Z,100689.78125
2022-09-12T02:38:40.884Z,100687.93359375
2022-09-12T02:39:45.035Z,100692.37890625
2022-09-12T02:40:40.852Z,100689.04296875
2022-09-12T02:41:40.771Z,100691.59375
2022-09-12T02:42:41.198Z,100690.70703125
2022-09-12T02:43:43.857Z,100689.484375
2022-09-12T02:44:40.850Z,100687.0859375
2022-09-12T02:45:41.013Z,100688.31640625
2022-09-12T02:46:40.968Z,100688.296875
2022-09-12T02:47:41.184Z,100688.61328125
2022-09-12T02:48:41.620Z,100686.89453125
2022-09-12T02:49:40.851Z,100683.67578125
2022-09-12T02:50:41.196Z,100687.84375
2022-09-12T02:51:40.967Z,100683.8984375
2022-09-12T02:52:41.189Z,100685.69140625
2022-09-12T02:53:40.960Z,100684.8515625
2022-09-12T02:54:43.892Z,100684.3671875
2022-09-12T02:55:40.939Z,100683.0234375
2022-09-12T02:56:40.969Z,100683.17578125
2022-09-12T02:57:41.189Z,100684.203125
2022-09-12T02:58:41.041Z,100686.8359375
2022-09-12T02:59:40.963Z,100685.8984375
2022-09-12T03:00:40.759Z,100684.4375
2022-09-12T03:01:40.874Z,100684.5625
2022-09-12T03:02:41.125Z,100682.51171875
2022-09-12T03:03:43.485Z,100682.90234375
2022-09-12T03:04:40.872Z,100683.734375
2022-09-12T03:05:46.812Z,100684.421875
2022-09-12T03:06:40.981Z,100684.44921875
2022-09-12T03:07:41.122Z,100685.38671875
2022-09-12T03:08:41.089Z,100681.91015625
2022-09-12T03:09:40.900Z,100683.83203125
2022-09-12T03:10:40.906Z,100681.0546875
2022-09-12T03:11:40.909Z,100680.41015625
2022-09-12T03:12:41.201Z,100680.640625
2022-09-12T03:13:40.946Z,100682.515625
2022-09-12T03:14:40.908Z,100684.07421875
2022-09-12T03:15:40.904Z,100681.98828125
2022-09-12T03:16:43.893Z,100682.421875
2022-09-12T03:17:41.132Z,100679.84765625
2022-09-12T03:18:40.926Z,100679.796875
2022-09-12T03:19:40.888Z,100679.40234375
2022-09-12T03:20:41.115Z,100681.43359375
2022-09-12T03:21:40.926Z,100683.71484375
2022-09-12T03:22:41.118Z,100683.9140625
2022-09-12T03:23:40.854Z,100682.99609375
2022-09-12T03:24:40.749Z,100682.9453125
2022-09-12T03:25:40.757Z,100686.6796875
2022-09-12T03:26:40.742Z,100688.52734375
2022-09-12T03:27:46.881Z,100687.890625
2022-09-12T03:28:42.399Z,100687.4453125
2022-09-12T03:29:40.883Z,100686.4375
2022-09-12T03:30:40.904Z,100690.31640625
2022-09-12T03:31:40.904Z,100687.83203125
2022-09-12T03:32:41.207Z,100689.86328125
2022-09-12T03:33:40.876Z,100688.48828125
2022-09-12T03:34:40.876Z,100688.1796875
2022-09-12T03:35:41.121Z,100687.3359375
2022-09-12T03:36:40.955Z,100684.65625
2022-09-12T03:37:41.189Z,100681.9609375
2022-09-12T03:38:43.950Z,100683.6796875
2022-09-12T03:39:40.940Z,100680.2578125
2022-09-12T03:40:40.805Z,100679.98828125
2022-09-12T03:41:40.822Z,100681.6328125
2022-09-12T03:42:41.129Z,100686.625
2022-09-12T03:43:40.956Z,100681.37109375
2022-09-12T03:44:40.843Z,100686.33203125
2022-09-12T03:45:40.801Z,100682.34375
2022-09-12T03:46:40.841Z,100680.64453125
2022-09-12T03:47:41.121Z,100685.99609375
2022-09-12T03:48:40.952Z,100686.12109375
2022-09-12T03:49:43.918Z,100685.62890625
2022-09-12T03:50:41.120Z,100685.93359375
2022-09-12T03:51:40.940Z,100685.31640625
2022-09-12T03:52:41.197Z,100681.97265625
2022-09-12T03:53:40.937Z,100681.8125
2022-09-12T03:54:40.753Z,100684.46484375
2022-09-12T03:55:40.766Z,100680.8515625
2022-09-12T03:56:40.856Z,100684.796875
2022-09-12T03:57:41.197Z,100683.93359375
2022-09-12T03:58:40.957Z,100683.40234375
2022-09-12T03:59:40.964Z,100681.765625
2022-09-12T04:00:43.824Z,100681.828125
2022-09-12T04:01:40.982Z,100682.65234375
2022-09-12T04:02:40.972Z,100682.47265625
2022-09-12T04:03:40.978Z,100682.44140625
2022-09-12T04:04:40.919Z,100681.5234375
2022-09-12T04:05:41.208Z,100681.67578125
2022-09-12T04:06:40.896Z,100678.265625
2022-09-12T04:07:41.200Z,100682.33203125
2022-09-12T04:08:40.862Z,100679.7265625
2022-09-12T04:09:40.822Z,100676.45703125
2022-09-12T04:10:40.857Z,100676.4140625
2022-09-12T04:11:43.912Z,100676.80859375
2022-09-12T04:12:41.128Z,100677.796875
2022-09-12T04:13:40.922Z,100675.16796875
2022-09-12T04:14:40.775Z,100675.80078125
2022-09-12T04:15:40.860Z,100676.171875
2022-09-12T04:16:41.014Z,100675.66796875
2022-09-12T04:17:41.124Z,100678.68359375
2022-09-12T04:18:40.905Z,100676.59765625
2022-09-12T04:19:40.840Z,100679.5234375
2022-09-12T04:20:41.195Z,100676.3125
2022-09-12T04:21:40.852Z,100677.90625
2022-09-12T04:22:46.815Z,100672.25
2022-09-12T04:23:40.921Z,100673.88671875
2022-09-12T04:24:40.907Z,100674.5625
2022-09-12T04:25:40.961Z,100675.44140625
2022-09-12T04:26:40.745Z,100675.48046875
2022-09-12T04:27:40.857Z,100679.71484375
2022-09-12T04:28:40.895Z,100682.5
2022-09-12T04:29:40.955Z,100682.55078125
2022-09-12T04:30:40.795Z,100678.3828125
2022-09-12T04:31:40.864Z,100684.0234375
2022-09-12T04:32:41.144Z,100681.74609375
2022-09-12T04:33:43.862Z,100679.5
2022-09-12T04:34:40.954Z,100680.56640625
2022-09-12T04:35:41.119Z,100678.64453125
2022-09-12T04:36:40.904Z,100680.8125
2022-09-12T04:37:41.268Z,100680.7734375
2022-09-12T04:38:40.944Z,100679.1796875
2022-09-12T04:39:40.939Z,100680.734375
2022-09-12T04:40:40.872Z,100679.76171875
2022-09-12T04:41:40.944Z,100682.015625
2022-09-12T04:42:41.122Z,100682.90234375
2022-09-12T04:43:41.190Z,100685.25390625
2022-09-12T04:44:43.837Z,100683.98828125
2022-09-12T04:45:40.909Z,100683.03515625
2022-09-12T04:46:40.901Z,100682.796875
2022-09-12T04:47:41.130Z,100681.62890625
2022-09-12T04:48:40.908Z,100682.59765625
2022-09-12T04:49:40.872Z,100677.44140625
2022-09-12T04:50:41.125Z,100680.3984375
2022-09-12T04:51:40.876Z,100681.0625
2022-09-12T04:52:41.118Z,100681.93359375
2022-09-12T04:53:41.184Z,100681.65234375
2022-09-12T04:54:40.975Z,100683.9453125
2022-09-12T04:55:43.841Z,100682.171875
2022-09-12T04:56:40.958Z,100680.51953125
2022-09-12T04:57:41.119Z,100684.5234375
2022-09-12T04:58:40.849Z,100684.75390625
2022-09-12T04:59:40.846Z,100685.60546875
2022-09-12T05:00:40.949Z,100684.61328125
2022-09-12T05:01:40.940Z,100681.5703125
2022-09-12T05:02:41.194Z,100682.87109375
2022-09-12T05:03:40.860Z,100685.44140625
2022-09-12T05:04:40.894Z,100683.9140625
2022-09-12T05:05:41.143Z,100686.02734375
2022-09-12T05:06:43.881Z,100686.23046875
2022-09-12T05:07:41.122Z,100689.16796875
2022-09-12T05:08:40.916Z,100685.1953125
2022-09-12T05:09:40.817Z,100688.046875
2022-09-12T05:10:40.944Z,100688.62109375
2022-09-12T05:12:03.113Z,100687.07421875
2022-09-12T05:12:41.131Z,100684.734375
2022-09-12T05:13:40.898Z,100687.63671875
2022-09-12T05:14:40.866Z,100684.64453125
2022-09-12T05:15:40.872Z,100685.1953125
2022-09-12T05:16:40.977Z,100683.83203125
2022-09-12T05:17:46.798Z,100681.4609375
2022-09-12T05:18:41.117Z,100686.921875
2022-09-12T05:19:40.995Z,100687.02734375
2022-09-12T05:20:41.125Z,100688.4765625
2022-09-12T05:21:40.833Z,100690.3671875
2022-09-12T05:22:41.200Z,100686.80859375
2022-09-12T05:23:40.917Z,100687.734375
2022-09-12T05:24:40.890Z,100688.71484375
2022-09-12T05:25:40.976Z,100689.54296875
2022-09-12T05:26:40.761Z,100689.41015625
2022-09-12T05:27:41.202Z,100689.35546875
2022-09-12T05:28:44.042Z,100692.30078125
2022-09-12T05:29:40.964Z,100697.67578125
2022-09-12T05:30:40.974Z,100696.4375
2022-09-12T05:31:40.869Z,100695.890625
2022-09-12T05:32:41.130Z,100696.07421875
2022-09-12T05:33:40.940Z,100699.08984375
2022-09-12T05:34:40.890Z,100696.9140625
2022-09-12T05:35:41.195Z,100693.54296875
2022-09-12T05:36:40.967Z,100694.8046875
2022-09-12T05:37:40.928Z,100694.6875
2022-09-12T05:38:40.891Z,100693.49609375
2022-09-12T05:39:44.137Z,100695.99609375
2022-09-12T05:40:40.940Z,100695.88671875
2022-09-12T05:41:40.911Z,100695.125
2022-09-12T05:42:41.201Z,100696.640625
2022-09-12T05:43:40.926Z,100694.4453125
2022-09-12T05:44:40.970Z,100692.0234375
2022-09-12T05:45:40.903Z,100694.1328125
2022-09-12T05:46:40.907Z,100697.8984375
2022-09-12T05:47:41.129Z,100694.73828125
2022-09-12T05:48:40.847Z,100699.87109375
2022-09-12T05:49:40.963Z,100696.96875
2022-09-12T05:50:46.760Z,100700.0625
2022-09-12T05:51:40.978Z,100697.703125
2022-09-12T05:52:41.124Z,100704.00390625
2022-09-12T05:53:40.927Z,100700.703125
2022-09-12T05:54:40.999Z,100698.65234375
2022-09-12T05:55:40.937Z,100696.99609375
2022-09-12T05:56:40.884Z,100694.59765625
2022-09-12T05:57:41.204Z,100698.27734375
2022-09-12T05:58:40.972Z,100698.6640625
2022-09-12T05:59:40.947Z,100697.89453125
2022-09-12T06:00:40.977Z,100697.6484375
2022-09-12T06:01:44.014Z,100697.56640625
2022-09-12T06:02:41.332Z,100701.625
2022-09-12T06:03:40.855Z,100700.41796875
2022-09-12T06:04:40.755Z,100703.6171875
2022-09-12T06:05:41.344Z,100707.51171875
2022-09-12T06:06:40.978Z,100699.22265625
2022-09-12T06:07:41.120Z,100701.71484375
2022-09-12T06:08:41.195Z,100701.94140625
2022-09-12T06:09:40.806Z,100702.60546875
2022-09-12T06:10:40.865Z,100699.703125
2022-09-12T06:11:40.869Z,100700.9296875
2022-09-12T06:12:43.904Z,100694.39453125
2022-09-12T06:13:41.310Z,100692.71875
2022-09-12T06:14:40.875Z,100689.30078125
2022-09-12T06:15:40.756Z,100685.453125
2022-09-12T06:16:40.956Z,100692.078125
2022-09-12T06:17:40.899Z,100694.97265625
2022-09-12T06:18:41.130Z,100695.87109375
2022-09-12T06:19:40.901Z,100693.46875
2022-09-12T06:20:41.118Z,100690.4765625
2022-09-12T06:21:40.841Z,100692.609375
2022-09-12T06:22:40.890Z,100692.86328125
2022-09-12T06:23:46.791Z,100692.0703125
2022-09-12T06:24:40.833Z,100691.484375
2022-09-12T06:25:40.753Z,100692.234375
2022-09-12T06:26:40.849Z,100688.87109375
2022-09-12T06:27:40.782Z,100690.10546875
2022-09-12T06:28:41.212Z,100692.42578125
2022-09-12T06:29:40.755Z,100691.984375
2022-09-12T06:30:40.924Z,100695.56640625
2022-09-12T06:31:40.973Z,100698.69140625
2022-09-12T06:32:40.950Z,100694.3203125
2022-09-12T06:33:41.195Z,100694.05078125
2022-09-12T06:34:43.872Z,100690.09765625
2022-09-12T06:35:41.114Z,100691.3046875
2022-09-12T06:36:40.951Z,100696.453125
2022-09-12T06:37:40.752Z,100694.59375
2022-09-12T06:38:41.200Z,100693.984375
2022-09-12T06:39:40.943Z,100692.1640625
2022-09-12T06:40:40.844Z,100691.734375
2022-09-12T06:41:43.688Z,100689.49609375
2022-09-12T06:42:40.920Z,100694.25
2022-09-12T06:43:41.199Z,100692.28125
2022-09-12T06:44:40.974Z,100686.7734375
2022-09-12T06:45:43.863Z,100686.21484375
2022-09-12T06:46:40.951Z,100683.453125
2022-09-12T06:47:40.861Z,100684.37109375
2022-09-12T06:48:42.204Z,100683.13671875
2022-09-12T06:49:40.975Z,100683.4765625
2022-09-12T06:50:41.121Z,100681.328125
2022-09-12T06:51:40.787Z,100683.87109375
2022-09-12T06:52:40.852Z,100683.078125
2022-09-12T06:53:41.156Z,100681.73046875
2022-09-12T06:54:40.865Z,100687.328125
2022-09-12T06:55:40.818Z,100688.87109375
2022-09-12T06:56:43.788Z,100686.1640625
2022-09-12T06:57:40.913Z,100690.1796875
2022-09-12T06:58:41.293Z,100689.375
2022-09-12T06:59:40.856Z,100687.8828125
2022-09-12T07:00:40.876Z,100689.76953125
2022-09-12T07:01:40.946Z,100688.3046875
2022-09-12T07:02:40.810Z,100688.3046875
2022-09-12T07:03:41.266Z,100687.53125
2022-09-12T07:04:40.826Z,100688.22265625
2022-09-12T07:05:41.194Z,100686.69921875
2022-09-12T07:06:40.840Z,100683.08984375
2022-09-12T07:07:43.874Z,100681.4296875
2022-09-12T07:08:41.229Z,100685.40234375
2022-09-12T07:09:40.896Z,100684.69140625
2022-09-12T07:10:40.799Z,100685.13671875
2022-09-12T07:11:40.871Z,100682.88671875
2022-09-12T07:12:40.972Z,100679.08203125
2022-09-12T07:13:41.151Z,100678.890625
2022-09-12T07:14:40.761Z,100676.859375
2022-09-12T07:15:40.855Z,100679.66796875
2022-09-12T07:16:41.002Z,100678.33984375
2022-09-12T07:17:40.838Z,100682.51171875
2022-09-12T07:18:46.836Z,100675.23828125
2022-09-12T07:19:40.880Z,100672.96484375
2022-09-12T07:20:41.199Z,100667.72265625
2022-09-12T07:21:41.086Z,100670.77734375
2022-09-12T07:22:40.859Z,100672.8984375
2022-09-12T07:23:40.954Z,100675.58203125
2022-09-12T07:24:40.854Z,100672.6640625
2022-09-12T07:25:40.762Z,100671.828125
2022-09-12T07:26:40.871Z,100671.70703125
2022-09-12T07:27:40.891Z,100672.671875
2022-09-12T07:28:41.123Z,100670.3671875
2022-09-12T07:29:43.806Z,100672.21875
2022-09-12T07:30:40.991Z,100678.95703125
2022-09-12T07:31:40.755Z,100681.9296875
2022-09-12T07:32:40.783Z,100677.49609375
2022-09-12T07:33:41.278Z,100679.59765625
2022-09-12T07:34:40.932Z,100673.67578125
2022-09-12T07:35:41.143Z,100678.59765625
2022-09-12T07:36:40.757Z,100678.29296875
2022-09-12T07:37:40.896Z,100676.140625
2022-09-12T07:38:41.138Z,100676.87109375
2022-09-12T07:39:40.999Z,100674.43359375
2022-09-12T07:40:43.917Z,100679.109375
2022-09-12T07:41:40.937Z,100676.375
2022-09-12T07:42:40.946Z,100674.61328125
2022-09-12T07:43:41.310Z,100678.7109375
2022-09-12T07:44:40.942Z,100679.6328125
2022-09-12T07:45:40.938Z,100678.1015625
2022-09-12T07:46:40.872Z,100674.9140625
2022-09-12T07:47:40.867Z,100672.4375
2022-09-12T07:48:41.119Z,100669.359375
2022-09-12T07:49:41.255Z,100670.6953125
2022-09-12T07:50:44.581Z,100664.703125
2022-09-12T07:51:43.849Z,100668.453125
2022-09-12T07:52:40.977Z,100671.02734375
2022-09-12T07:53:41.123Z,100669.28125
2022-09-12T07:54:40.969Z,100668.63671875
2022-09-12T07:55:40.844Z,100666.59765625
2022-09-12T07:56:40.910Z,100669.58203125
2022-09-12T07:57:40.879Z,100664.98046875
2022-09-12T07:58:41.196Z,100665.91796875
2022-09-12T07:59:52.644Z,100665.22265625
2022-09-12T08:00:40.917Z,100663.30859375
2022-09-12T08:01:41.009Z,100667.08203125
2022-09-12T08:02:43.969Z,100669.0859375
2022-09-12T08:03:41.145Z,100670.35546875
2022-09-12T08:04:40.964Z,100668.1015625
2022-09-12T08:05:41.131Z,100670.04296875
2022-09-12T08:06:40.929Z,100665.96875
2022-09-12T08:07:40.779Z,100668.8515625
2022-09-12T08:08:40.880Z,100668.34765625
2022-09-12T08:09:41.329Z,100668.75
2022-09-12T08:10:40.931Z,100670.6171875
2022-09-12T08:11:40.843Z,100670.40625
2022-09-12T08:12:40.845Z,100673.234375
2022-09-12T08:13:43.804Z,100673.65234375
2022-09-12T08:14:41.123Z,100673.0390625
2022-09-12T08:15:41.021Z,100678.47265625
2022-09-12T08:16:40.918Z,100676.60546875
2022-09-12T08:17:40.803Z,100673.609375
2022-09-12T08:18:40.874Z,100675.0390625
2022-09-12T08:19:41.119Z,100678.44140625
2022-09-12T08:20:40.858Z,100678.01171875
2022-09-12T08:21:40.914Z,100678.671875
2022-09-12T08:22:40.851Z,100678.609375
2022-09-12T08:23:40.876Z,100678.5078125
2022-09-12T08:24:46.783Z,100678.1484375
2022-09-12T08:25:40.832Z,100672.015625
2022-09-12T08:26:40.743Z,100672.07421875
2022-09-12T08:27:40.747Z,100670.3125
2022-09-12T08:28:40.889Z,100667.44921875
2022-09-12T08:29:41.356Z,100670.265625
2022-09-12T08:30:40.801Z,100669.48046875
2022-09-12T08:31:40.822Z,100672.69921875
2022-09-12T08:32:40.861Z,100673.15234375
2022-09-12T08:33:40.964Z,100671.2109375
2022-09-12T08:34:41.124Z,100670.5625
2022-09-12T08:35:46.798Z,100669.65234375
2022-09-12T08:36:40.939Z,100668.7890625
2022-09-12T08:37:40.954Z,100664.28515625
2022-09-12T08:38:40.859Z,100668.3046875
2022-09-12T08:39:41.285Z,100666.55859375
2022-09-12T08:40:40.975Z,100670.1796875
2022-09-12T08:41:40.874Z,100666.97265625
2022-09-12T08:42:40.759Z,100668.4296875
2022-09-12T08:43:40.754Z,100672.125
2022-09-12T08:44:41.209Z,100670.171875
2022-09-12T08:45:40.963Z,100667.484375
2022-09-12T08:46:43.869Z,100666.12109375
2022-09-12T08:47:40.856Z,100666.75
2022-09-12T08:48:40.910Z,100668.46875
2022-09-12T08:49:41.234Z,100667.796875
2022-09-12T08:50:41.129Z,100667.859375
2022-09-12T08:51:40.975Z,100668.80078125
2022-09-12T08:52:40.843Z,100671.89453125
2022-09-12T08:53:40.765Z,100669.65234375
2022-09-12T08:54:40.797Z,100666.40234375
2022-09-12T08:55:41.189Z,100670.77734375
2022-09-12T08:56:40.934Z,100669.15234375
2022-09-12T08:57:43.896Z,100666.06640625
2022-09-12T08:58:40.901Z,100667.80078125
2022-09-12T08:59:40.826Z,100663.64453125
2022-09-12T09:00:41.191Z,100667.46875
2022-09-12T09:01:40.989Z,100663.24609375
2022-09-12T09:02:40.981Z,100666.66796875
2022-09-12T09:03:40.880Z,100662.7109375
2022-09-12T09:04:40.871Z,100665.43359375
2022-09-12T09:05:41.202Z,100660.46484375
2022-09-12T09:06:40.881Z,100662.47265625
2022-09-12T09:07:40.889Z,100661.203125
2022-09-12T09:08:43.852Z,100662.6796875
2022-09-12T09:09:40.914Z,100653.7421875
2022-09-12T09:10:41.193Z,100656.6875
2022-09-12T09:11:40.978Z,100656.96484375
2022-09-12T09:12:40.927Z,100656.2109375
2022-09-12T09:13:40.899Z,100651.64453125
2022-09-12T09:14:40.792Z,100653.79296875
2022-09-12T09:15:41.356Z,100657.66015625
2022-09-12T09:16:40.871Z,100655.265625
2022-09-12T09:17:40.865Z,100656.390625
2022-09-12T09:18:40.875Z,100656.7578125
2022-09-12T09:19:46.661Z,100658.703125
2022-09-12T09:20:41.128Z,100657.38671875
2022-09-12T09:21:40.840Z,100657.99609375
2022-09-12T09:22:40.778Z,100661.015625
2022-09-12T09:23:40.893Z,100657.62109375
2022-09-12T09:24:40.893Z,100657.86328125
2022-09-12T09:25:41.124Z,100654.7890625
2022-09-12T09:26:40.883Z,100656.140625
2022-09-12T09:27:41.618Z,100654.80859375
2022-09-12T09:28:40.873Z,100656.796875
2022-09-12T09:29:40.774Z,100660.95703125
2022-09-12T09:30:44.340Z,100654.74609375
2022-09-12T09:31:40.983Z,100654.9609375
2022-09-12T09:32:40.928Z,100654.1796875
2022-09-12T09:33:40.794Z,100653.8046875
2022-09-12T09:34:40.807Z,100652.96875
2022-09-12T09:35:41.213Z,100652.859375
2022-09-12T09:36:40.860Z,100652.19921875
2022-09-12T09:37:40.753Z,100654.68359375
2022-09-12T09:38:40.880Z,100652.9375
2022-09-12T09:39:40.929Z,100651.87890625
2022-09-12T09:40:41.197Z,100647.01171875
2022-09-12T09:41:46.840Z,100647.72265625
2022-09-12T09:42:40.984Z,100641.50390625
2022-09-12T09:43:40.936Z,100637.01953125
2022-09-12T09:44:40.912Z,100634.59765625
2022-09-12T09:45:43.423Z,100639.52734375
2022-09-12T09:46:41.250Z,100640.33203125
2022-09-12T09:47:40.777Z,100633.81640625
2022-09-12T09:48:40.876Z,100632.10546875
2022-09-12T09:49:40.882Z,100632.15625
2022-09-12T09:50:41.200Z,100632.140625
2022-09-12T09:51:41.196Z,100632.109375
2022-09-12T09:52:43.801Z,100630.0078125
2022-09-12T09:53:40.975Z,100629.76953125
2022-09-12T09:54:40.925Z,100623.94140625
2022-09-12T09:55:40.833Z,100622.9140625
2022-09-12T09:56:41.184Z,100624.8046875
2022-09-12T09:57:41.136Z,100624.5625
2022-09-12T09:58:40.845Z,100618.34765625